createdAt,value
2017-11-27T00:01:20.922Z,64.10
2017-11-27T00:03:48.387Z,64.50
2017-11-27T00:06:15.918Z,64.60
2017-11-27T00:08:43.359Z,64.60
2017-11-27T00:11:10.931Z,64.60
2017-11-27T00:13:39.156Z,65.70
2017-11-27T00:16:06.583Z,65.70
2017-11-27T00:18:34.011Z,66.60
2017-11-27T00:21:01.453Z,67.10
2017-11-27T00:23:28.922Z,67.70
2017-11-27T00:25:56.386Z,67.30
2017-11-27T00:28:24.573Z,68.00
2017-11-27T00:30:52.081Z,68.00
2017-11-27T00:33:19.532Z,67.60
2017-11-27T00:35:46.971Z,67.60
2017-11-27T00:38:14.404Z,66.90
2017-11-27T00:40:41.840Z,67.70
2017-11-27T00:43:09.290Z,67.20
2017-11-27T00:45:36.849Z,67.60
2017-11-27T00:48:04.281Z,67.20
2017-11-27T00:50:31.729Z,67.30
2017-11-27T00:52:59.390Z,67.00
2017-11-27T00:55:27.603Z,67.20
2017-11-27T00:57:55.038Z,67.20
2017-11-27T01:00:22.483Z,67.10
2017-11-27T01:02:50.097Z,67.60
2017-11-27T01:05:18.336Z,68.00
2017-11-27T01:07:46.591Z,67.80
2017-11-27T01:10:14.020Z,67.70
2017-11-27T01:12:41.509Z,67.90
2017-11-27T01:15:09.742Z,67.80
2017-11-27T01:17:37.196Z,67.80
2017-11-27T01:20:05.429Z,68.50
2017-11-27T01:22:32.930Z,68.60
2017-11-27T01:25:00.377Z,68.20
2017-11-27T01:27:27.853Z,68.70
2017-11-27T01:29:55.292Z,68.40
2017-11-27T01:32:22.730Z,68.20
2017-11-27T01:34:50.293Z,68.40
2017-11-27T01:37:17.833Z,68.40
2017-11-27T01:39:45.286Z,67.80
2017-11-27T01:42:12.730Z,68.00
2017-11-27T01:44:40.163Z,68.50
2017-11-27T01:47:07.593Z,68.40
2017-11-27T01:49:35.033Z,68.10
2017-11-27T01:52:02.490Z,68.10
2017-11-27T01:54:30.054Z,68.10
2017-11-27T01:56:57.481Z,67.90
2017-11-27T01:59:24.930Z,68.10
2017-11-27T02:01:52.386Z,68.30
2017-11-27T02:04:19.825Z,68.90
2017-11-27T02:06:47.358Z,68.90
2017-11-27T02:09:14.793Z,69.50
2017-11-27T02:11:42.253Z,69.50
2017-11-27T02:14:09.709Z,69.80
2017-11-27T02:16:37.949Z,70.10
2017-11-27T02:19:05.383Z,70.10
2017-11-27T02:21:32.924Z,70.40
2017-11-27T02:24:00.361Z,69.70
2017-11-27T02:26:27.813Z,69.80
2017-11-27T02:28:55.249Z,69.20
2017-11-27T02:31:22.700Z,69.90
2017-11-27T02:33:50.149Z,70.00
2017-11-27T02:36:17.606Z,69.70
2017-11-27T02:38:45.033Z,69.40
2017-11-27T02:41:12.574Z,69.80
2017-11-27T02:43:40.016Z,69.70
2017-11-27T02:46:07.443Z,68.90
2017-11-27T02:48:34.877Z,68.70
2017-11-27T02:51:02.317Z,68.70
2017-11-27T02:53:29.792Z,68.60
2017-11-27T02:55:57.328Z,68.50
2017-11-27T02:58:24.789Z,68.50
2017-11-27T03:00:53.034Z,67.90
2017-11-27T03:03:20.472Z,67.80
2017-11-27T03:05:47.923Z,67.90
2017-11-27T03:08:15.354Z,67.40
2017-11-27T03:10:42.807Z,67.60
2017-11-27T03:13:10.233Z,67.40
2017-11-27T03:15:37.674Z,67.80
2017-11-27T03:18:05.115Z,67.10
2017-11-27T03:20:32.548Z,67.00
2017-11-27T03:22:59.977Z,66.80
2017-11-27T03:25:27.530Z,66.70
2017-11-27T03:27:54.986Z,66.70
2017-11-27T03:30:22.416Z,66.00
2017-11-27T03:32:49.862Z,65.70
2017-11-27T03:35:17.320Z,66.30
2017-11-27T03:37:44.908Z,66.00
2017-11-27T03:40:13.101Z,65.50
2017-11-27T03:42:40.533Z,65.60
2017-11-27T03:45:07.973Z,65.60
2017-11-27T03:47:35.461Z,65.60
2017-11-27T03:50:02.910Z,65.90
2017-11-27T03:52:30.350Z,66.00
2017-11-27T03:54:57.806Z,65.10
2017-11-27T03:57:26.005Z,65.20
2017-11-27T03:59:53.505Z,64.80
2017-11-27T04:02:21.041Z,64.50
2017-11-27T04:04:48.488Z,64.40
2017-11-27T04:07:15.935Z,64.90
2017-11-27T04:09:43.449Z,64.80
2017-11-27T04:12:10.862Z,64.40
2017-11-27T04:14:38.324Z,64.30
2017-11-27T04:17:05.878Z,64.60
2017-11-27T04:19:33.362Z,65.00
2017-11-27T04:22:00.782Z,65.20
2017-11-27T04:24:28.308Z,65.10
2017-11-27T04:26:55.770Z,64.80
2017-11-27T04:29:23.229Z,65.20
2017-11-27T04:31:50.665Z,64.70
2017-11-27T04:34:18.123Z,64.60
2017-11-27T04:36:45.651Z,64.80
2017-11-27T04:39:13.911Z,64.70
2017-11-27T04:41:41.362Z,64.70
2017-11-27T04:44:08.797Z,64.90
2017-11-27T04:46:36.233Z,64.20
2017-11-27T04:49:03.678Z,64.50
2017-11-27T04:51:31.110Z,64.40
2017-11-27T04:53:58.549Z,64.70
2017-11-27T04:56:26.006Z,63.90
2017-11-27T04:58:53.555Z,63.80
2017-11-27T05:01:20.992Z,63.70
2017-11-27T05:03:48.425Z,63.90
2017-11-27T05:06:15.877Z,63.80
2017-11-27T05:08:43.314Z,63.50
2017-11-27T05:11:10.746Z,63.60
2017-11-27T05:13:38.170Z,64.10
2017-11-27T05:16:05.650Z,63.60
2017-11-27T05:18:33.092Z,64.00
2017-11-27T05:21:00.533Z,64.00
2017-11-27T05:23:27.968Z,64.30
2017-11-27T05:25:55.424Z,64.20
2017-11-27T05:28:22.954Z,64.30
2017-11-27T05:30:50.386Z,64.00
2017-11-27T05:33:17.822Z,64.40
2017-11-27T05:35:45.266Z,64.30
2017-11-27T05:38:12.693Z,64.60
2017-11-27T05:40:40.130Z,64.60
2017-11-27T05:43:07.626Z,64.70
2017-11-27T05:45:35.066Z,64.30
2017-11-27T05:48:02.509Z,64.50
2017-11-27T05:50:29.958Z,64.00
2017-11-27T05:52:57.381Z,63.90
2017-11-27T05:55:24.817Z,64.00
2017-11-27T05:57:52.267Z,64.70
2017-11-27T06:00:19.690Z,64.70
2017-11-27T06:02:47.180Z,64.80
2017-11-27T06:05:14.601Z,64.80
2017-11-27T06:07:42.042Z,63.90
2017-11-27T06:10:09.469Z,64.70
2017-11-27T06:12:36.924Z,64.50
2017-11-27T06:15:04.337Z,64.70
2017-11-27T06:17:31.770Z,63.70
2017-11-27T06:19:59.262Z,63.50
2017-11-27T06:22:26.809Z,62.60
2017-11-27T06:24:54.246Z,62.80
2017-11-27T06:27:21.801Z,62.80
2017-11-27T06:29:49.259Z,64.00
2017-11-27T06:32:16.690Z,63.00
2017-11-27T06:34:44.138Z,63.00
2017-11-27T06:37:11.567Z,63.70
2017-11-27T06:39:39.185Z,62.90
2017-11-27T06:42:06.646Z,63.00
2017-11-27T06:44:34.090Z,63.10
2017-11-27T06:47:01.566Z,63.30
2017-11-27T06:49:29.016Z,63.70
2017-11-27T06:51:56.469Z,63.90
2017-11-27T06:54:24.001Z,63.60
2017-11-27T06:56:52.210Z,64.20
2017-11-27T06:59:19.653Z,64.20
2017-11-27T07:01:47.081Z,62.50
2017-11-27T07:04:14.566Z,63.30
2017-11-27T07:06:42.101Z,62.70
2017-11-27T07:09:09.545Z,62.80
2017-11-27T07:11:36.989Z,63.40
2017-11-27T07:14:04.424Z,63.10
2017-11-27T07:16:31.866Z,62.90
2017-11-27T07:18:59.311Z,62.90
2017-11-27T07:21:26.761Z,63.00
2017-11-27T07:23:54.303Z,63.50
2017-11-27T07:26:21.747Z,63.40
2017-11-27T07:28:49.189Z,64.70
2017-11-27T07:31:16.639Z,64.70
2017-11-27T07:33:44.057Z,63.70
2017-11-27T07:36:11.529Z,63.50
2017-11-27T07:38:45.335Z,63.00
2017-11-27T07:41:13.533Z,62.00
2017-11-27T07:43:40.967Z,62.00
2017-11-27T07:46:08.401Z,61.50
2017-11-27T07:48:35.841Z,61.30
2017-11-27T07:51:03.276Z,61.20
2017-11-27T07:53:30.769Z,60.90
2017-11-27T07:55:58.214Z,61.40
2017-11-27T07:58:25.672Z,61.50
2017-11-27T08:00:53.172Z,61.10
2017-11-27T08:03:20.642Z,61.40
2017-11-27T08:05:48.082Z,61.10
2017-11-27T08:08:15.521Z,60.50
2017-11-27T08:10:42.970Z,60.40
2017-11-27T08:13:10.517Z,60.50
2017-11-27T08:15:37.954Z,60.10
2017-11-27T08:18:05.412Z,59.90
2017-11-27T08:20:32.971Z,60.10
2017-11-27T08:23:00.369Z,61.20
2017-11-27T08:25:27.829Z,59.20
2017-11-27T08:27:55.255Z,59.40
2017-11-27T08:30:22.886Z,59.90
2017-11-27T08:32:50.305Z,60.40
2017-11-27T08:35:17.904Z,59.80
2017-11-27T08:37:45.331Z,59.00
2017-11-27T08:40:12.787Z,59.70
2017-11-27T08:42:40.381Z,60.10
2017-11-27T08:45:07.783Z,59.80
2017-11-27T08:47:35.313Z,59.30
2017-11-27T08:50:02.843Z,59.50
2017-11-27T08:52:30.284Z,59.50
2017-11-27T08:54:57.730Z,59.40
2017-11-27T08:57:25.167Z,59.30
2017-11-27T08:59:52.754Z,58.70
2017-11-27T09:02:20.201Z,58.60
2017-11-27T09:04:47.728Z,58.40
2017-11-27T09:07:15.944Z,58.10
2017-11-27T09:09:43.374Z,58.10
2017-11-27T09:12:10.829Z,57.60
2017-11-27T09:14:38.261Z,57.70
2017-11-27T09:17:05.717Z,58.60
2017-11-27T09:19:33.189Z,57.10
2017-11-27T09:22:01.400Z,57.40
2017-11-27T09:24:28.873Z,57.00
2017-11-27T09:26:56.325Z,56.40
2017-11-27T09:29:23.759Z,55.90
2017-11-27T09:31:51.196Z,55.90
2017-11-27T09:34:18.638Z,54.30
2017-11-27T09:36:46.069Z,53.60
2017-11-27T09:39:13.553Z,54.00
2017-11-27T09:41:41.215Z,53.00
2017-11-27T09:44:09.437Z,53.00
2017-11-27T09:46:36.885Z,52.50
2017-11-27T09:49:04.335Z,52.40
2017-11-27T09:51:31.756Z,50.80
2017-11-27T09:53:59.208Z,51.40
2017-11-27T09:56:26.638Z,52.10
2017-11-27T09:58:54.123Z,51.70
2017-11-27T10:01:21.536Z,51.80
2017-11-27T10:03:48.976Z,51.60
2017-11-27T10:06:16.411Z,51.80
2017-11-27T10:08:43.881Z,52.30
2017-11-27T10:11:11.314Z,53.30
2017-11-27T10:13:38.761Z,53.10
2017-11-27T10:16:06.208Z,53.40
2017-11-27T10:18:35.155Z,53.30
2017-11-27T10:21:02.592Z,53.20
2017-11-27T10:23:30.062Z,53.80
2017-11-27T10:25:57.522Z,54.10
2017-11-27T10:28:24.970Z,54.00
2017-11-27T10:30:52.406Z,54.50
2017-11-27T10:33:19.941Z,54.30
2017-11-27T10:35:47.382Z,54.30
2017-11-27T10:38:14.845Z,54.40
2017-11-27T10:40:42.285Z,54.70
2017-11-27T10:43:09.746Z,55.30
2017-11-27T10:45:37.958Z,54.70
2017-11-27T10:48:05.387Z,54.70
2017-11-27T10:50:33.618Z,55.00
2017-11-27T10:53:01.106Z,55.00
2017-11-27T10:55:28.727Z,55.20
2017-11-27T10:57:56.166Z,55.10
2017-11-27T11:00:23.606Z,54.90
2017-11-27T11:02:51.162Z,55.00
2017-11-27T11:05:19.410Z,55.20
2017-11-27T11:07:46.855Z,55.30
2017-11-27T11:10:14.291Z,54.20
2017-11-27T11:12:41.747Z,54.20
2017-11-27T11:15:09.302Z,54.40
2017-11-27T11:17:37.511Z,54.30
2017-11-27T11:20:04.978Z,54.30
2017-11-27T11:22:32.410Z,55.20
2017-11-27T11:24:59.844Z,54.20
2017-11-27T11:27:28.025Z,54.90
2017-11-27T11:29:55.500Z,54.30
2017-11-27T11:32:22.919Z,54.00
2017-11-27T11:34:50.363Z,53.70
2017-11-27T11:37:17.801Z,53.70
2017-11-27T11:39:45.238Z,53.30
2017-11-27T11:42:12.660Z,53.20
2017-11-27T11:44:40.102Z,53.40
2017-11-27T11:47:07.578Z,53.10
2017-11-27T11:49:35.029Z,53.10
2017-11-27T11:52:03.239Z,53.50
2017-11-27T11:54:30.721Z,53.50
2017-11-27T11:56:58.145Z,53.40
2017-11-27T11:59:25.584Z,52.80
2017-11-27T12:01:53.022Z,53.10
2017-11-27T12:04:20.486Z,53.00
2017-11-27T12:06:47.936Z,52.60
2017-11-27T12:09:15.473Z,52.10
2017-11-27T12:11:42.908Z,51.90
2017-11-27T12:14:10.456Z,51.60
2017-11-27T12:16:37.889Z,50.90
2017-11-27T12:19:05.528Z,51.20
2017-11-27T12:21:32.957Z,50.80
2017-11-27T12:24:00.440Z,49.40
2017-11-27T12:26:28.889Z,50.30
2017-11-27T12:28:56.326Z,50.60
2017-11-27T12:31:23.755Z,50.00
2017-11-27T12:33:51.237Z,50.10
2017-11-27T12:36:18.681Z,49.90
2017-11-27T12:38:46.125Z,49.90
2017-11-27T12:41:13.570Z,49.10
2017-11-27T12:43:41.003Z,49.80
2017-11-27T12:46:08.538Z,49.50
2017-11-27T12:48:36.139Z,49.50
2017-11-27T12:51:03.596Z,49.20
2017-11-27T12:53:31.052Z,49.20
2017-11-27T12:55:58.486Z,48.70
2017-11-27T12:58:25.968Z,49.00
2017-11-27T13:00:54.187Z,48.90
2017-11-27T13:03:22.653Z,48.90
2017-11-27T13:05:50.098Z,49.10
2017-11-27T13:08:17.533Z,49.50
2017-11-27T13:10:44.992Z,47.90
2017-11-27T13:13:12.534Z,48.30
2017-11-27T13:15:39.970Z,48.30
2017-11-27T13:18:07.400Z,48.40
2017-11-27T13:20:34.833Z,48.60
2017-11-27T13:23:02.285Z,48.60
2017-11-27T13:25:29.759Z,48.70
2017-11-27T13:27:57.294Z,48.30
2017-11-27T13:30:24.732Z,48.10
2017-11-27T13:32:52.224Z,48.40
2017-11-27T13:35:19.712Z,48.30
2017-11-27T13:37:47.158Z,48.20
2017-11-27T13:40:14.589Z,48.20
2017-11-27T13:42:42.158Z,48.10
2017-11-27T13:45:10.417Z,47.50
2017-11-27T13:47:37.853Z,47.60
2017-11-27T13:50:05.331Z,47.70
2017-11-27T13:52:32.755Z,47.90
2017-11-27T13:55:00.182Z,47.60
2017-11-27T13:57:27.624Z,47.40
2017-11-27T13:59:55.116Z,46.80
2017-11-27T14:02:22.642Z,46.30
2017-11-27T14:04:50.106Z,46.60
2017-11-27T14:07:17.537Z,46.50
2017-11-27T14:09:44.985Z,46.80
2017-11-27T14:12:12.442Z,46.00
2017-11-27T14:14:40.005Z,45.60
2017-11-27T14:17:07.459Z,45.40
2017-11-27T14:19:35.694Z,45.20
2017-11-27T14:22:03.153Z,45.20
2017-11-27T14:24:30.606Z,45.10
2017-11-27T14:26:59.218Z,45.20
2017-11-27T14:29:26.667Z,46.00
2017-11-27T14:31:54.102Z,45.10
2017-11-27T14:34:21.575Z,45.10
2017-11-27T14:36:49.018Z,45.10
2017-11-27T14:39:16.571Z,45.40
2017-11-27T14:41:44.013Z,45.20
2017-11-27T14:44:11.474Z,45.40
2017-11-27T14:46:39.694Z,45.60
2017-11-27T14:49:07.116Z,45.60
2017-11-27T14:51:34.624Z,45.60
2017-11-27T14:54:02.118Z,45.40
2017-11-27T14:56:29.555Z,46.20
2017-11-27T14:58:57.149Z,45.80
2017-11-27T15:01:24.594Z,45.10
2017-11-27T15:03:52.037Z,44.80
2017-11-27T15:06:19.506Z,45.40
2017-11-27T15:08:47.857Z,45.80
2017-11-27T15:11:15.306Z,45.90
2017-11-27T15:13:43.608Z,45.90
2017-11-27T15:16:11.050Z,45.20
2017-11-27T15:18:38.496Z,45.80
2017-11-27T15:21:05.991Z,45.90
2017-11-27T15:23:33.514Z,45.90
2017-11-27T15:26:01.077Z,45.30
2017-11-27T15:28:28.500Z,44.90
2017-11-27T15:30:55.947Z,45.10
2017-11-27T15:33:23.391Z,45.50
2017-11-27T15:35:50.834Z,45.60
2017-11-27T15:38:18.310Z,45.30
2017-11-27T15:40:45.750Z,45.10
2017-11-27T15:43:14.381Z,45.30
2017-11-27T15:45:41.840Z,45.30
2017-11-27T15:48:09.281Z,45.40
2017-11-27T15:50:36.791Z,45.50
2017-11-27T15:53:04.231Z,46.00
2017-11-27T15:55:31.710Z,45.70
2017-11-27T15:57:59.155Z,45.30
2017-11-27T16:00:26.597Z,45.60
2017-11-27T16:02:54.158Z,45.20
2017-11-27T16:05:21.601Z,45.50
2017-11-27T16:07:49.106Z,45.60
2017-11-27T16:10:16.617Z,44.80
2017-11-27T16:12:44.826Z,44.90
2017-11-27T16:15:12.329Z,44.80
2017-11-27T16:17:39.862Z,45.20
2017-11-27T16:20:07.385Z,44.70
2017-11-27T16:22:35.595Z,44.70
2017-11-27T16:25:03.045Z,44.40
2017-11-27T16:27:30.497Z,44.60
2017-11-27T16:29:57.966Z,44.80
2017-11-27T16:32:25.434Z,45.00
2017-11-27T16:34:53.673Z,44.80
2017-11-27T16:37:21.961Z,44.50
2017-11-27T16:39:50.191Z,44.70
2017-11-27T16:42:17.635Z,44.70
2017-11-27T16:44:45.080Z,44.90
2017-11-27T16:47:12.547Z,44.90
2017-11-27T16:49:40.005Z,45.00
2017-11-27T16:52:07.867Z,45.20
2017-11-27T16:54:35.339Z,45.20
2017-11-27T16:57:02.778Z,45.30
2017-11-27T16:59:32.571Z,45.70
2017-11-27T17:02:00.013Z,45.60
2017-11-27T17:04:27.566Z,45.70
2017-11-27T17:06:55.143Z,45.70
2017-11-27T17:09:23.349Z,45.90
2017-11-27T17:11:50.810Z,45.90
2017-11-27T17:14:18.286Z,46.10
2017-11-27T17:16:46.523Z,46.30
2017-11-27T17:19:13.982Z,46.40
2017-11-27T17:21:42.207Z,47.10
2017-11-27T17:24:09.650Z,47.10
2017-11-27T17:26:37.094Z,47.20
2017-11-27T17:29:04.547Z,47.30
2017-11-27T17:31:32.007Z,47.40
2017-11-27T17:33:59.447Z,47.60
2017-11-27T17:36:26.884Z,47.80
2017-11-27T17:38:54.340Z,48.00
2017-11-27T17:41:22.539Z,49.10
2017-11-27T17:43:49.969Z,49.10
2017-11-27T17:46:17.411Z,48.90
2017-11-27T17:48:45.608Z,49.10
2017-11-27T17:51:13.047Z,49.10
2017-11-27T17:53:40.480Z,49.00
2017-11-27T17:56:07.966Z,49.00
2017-11-27T17:58:36.171Z,49.70
2017-11-27T18:01:03.670Z,49.80
2017-11-27T18:03:31.143Z,49.70
2017-11-27T18:05:59.379Z,50.30
2017-11-27T18:08:26.813Z,50.60
2017-11-27T18:10:54.251Z,50.20
2017-11-27T18:13:21.695Z,50.10
2017-11-27T18:15:49.130Z,50.50
2017-11-27T18:18:16.580Z,50.30
2017-11-27T18:20:44.028Z,50.30
2017-11-27T18:23:11.474Z,50.40
2017-11-27T18:25:39.017Z,50.50
2017-11-27T18:28:06.464Z,50.60
2017-11-27T18:30:33.924Z,50.70
2017-11-27T18:33:01.355Z,50.90
2017-11-27T18:35:28.890Z,51.00
2017-11-27T18:37:56.321Z,51.00
2017-11-27T18:40:23.755Z,51.30
2017-11-27T18:42:51.193Z,51.20
2017-11-27T18:45:18.642Z,51.40
2017-11-27T18:47:46.073Z,51.40
2017-11-27T18:50:13.493Z,51.30
2017-11-27T18:52:40.942Z,51.30
2017-11-27T18:55:08.374Z,51.00
2017-11-27T18:57:35.832Z,50.90
2017-11-27T19:00:03.312Z,51.10
2017-11-27T19:02:30.818Z,51.10
2017-11-27T19:04:58.244Z,51.20
2017-11-27T19:07:25.811Z,51.20
2017-11-27T19:09:53.239Z,51.20
2017-11-27T19:12:20.693Z,51.50
2017-11-27T19:14:48.180Z,51.40
2017-11-27T19:17:15.658Z,51.40
2017-11-27T19:19:43.082Z,51.50
2017-11-27T19:22:10.513Z,51.50
2017-11-27T19:24:37.986Z,51.70
2017-11-27T19:27:05.578Z,51.40
2017-11-27T19:29:33.818Z,51.50
2017-11-27T19:32:01.252Z,51.50
2017-11-27T19:34:28.734Z,52.20
2017-11-27T19:36:56.933Z,51.40
2017-11-27T19:39:24.384Z,51.40
2017-11-27T19:41:51.818Z,51.60
2017-11-27T19:44:19.266Z,51.70
2017-11-27T19:46:46.699Z,51.60
2017-11-27T19:49:14.141Z,51.90
2017-11-27T19:51:41.574Z,51.70
2017-11-27T19:54:09.028Z,52.10
2017-11-27T19:56:36.515Z,52.30
2017-11-27T19:59:04.748Z,52.30
2017-11-27T20:01:32.191Z,52.30
2017-11-27T20:03:59.662Z,52.00
2017-11-27T20:06:27.093Z,52.00
2017-11-27T20:08:54.549Z,51.90
2017-11-27T20:11:22.794Z,51.70
2017-11-27T20:13:50.287Z,51.70
2017-11-27T20:16:17.727Z,51.70
2017-11-27T20:18:45.224Z,51.70
2017-11-27T20:21:12.657Z,51.50
2017-11-27T20:23:40.085Z,51.50
2017-11-27T20:26:07.831Z,51.20
2017-11-27T20:28:35.298Z,51.10
2017-11-27T20:31:02.720Z,51.20
2017-11-27T20:33:30.156Z,51.00
2017-11-27T20:35:57.590Z,50.80
2017-11-27T20:38:25.035Z,50.60
2017-11-27T20:40:52.478Z,50.70
2017-11-27T20:43:19.922Z,50.60
2017-11-27T20:45:47.408Z,50.90
2017-11-27T20:48:14.853Z,50.70
2017-11-27T20:50:42.298Z,50.30
2017-11-27T20:53:10.494Z,49.90
2017-11-27T20:55:37.938Z,49.90
2017-11-27T20:58:05.367Z,50.00
2017-11-27T21:00:32.806Z,50.10
2017-11-27T21:03:00.233Z,50.30
2017-11-27T22:27:24.751Z,50.40
2017-11-27T22:29:52.181Z,53.80
2017-11-27T22:32:19.615Z,53.70
2017-11-27T22:34:47.051Z,53.70
2017-11-27T22:37:14.526Z,53.60
2017-11-27T22:39:41.982Z,53.20
2017-11-27T22:42:09.535Z,53.00
2017-11-27T22:44:37.069Z,53.10
2017-11-27T22:47:04.508Z,52.80
2017-11-27T22:49:31.963Z,52.40
2017-11-27T22:52:00.350Z,53.10
2017-11-27T22:54:27.785Z,52.60
2017-11-27T22:56:56.009Z,52.70
2017-11-27T22:59:23.574Z,52.70
2017-11-27T23:01:51.011Z,52.90
2017-11-27T23:04:18.462Z,52.50
2017-11-27T23:06:45.901Z,52.60
2017-11-27T23:09:13.320Z,52.30
2017-11-27T23:11:40.770Z,52.20
2017-11-27T23:14:08.227Z,51.80
2017-11-27T23:16:35.772Z,51.70
2017-11-27T23:19:03.314Z,51.20
2017-11-27T23:21:30.760Z,52.20
2017-11-27T23:23:58.191Z,52.30
2017-11-27T23:26:25.619Z,51.90
2017-11-27T23:28:53.051Z,52.00
2017-11-27T23:31:20.513Z,52.10
2017-11-27T23:33:47.942Z,52.40
2017-11-27T23:36:15.387Z,52.60
2017-11-27T23:38:42.806Z,52.80
2017-11-27T23:41:10.289Z,53.00
2017-11-27T23:43:37.826Z,53.60
2017-11-27T23:46:05.260Z,53.80
2017-11-27T23:48:32.711Z,55.20
2017-11-27T23:51:00.170Z,54.30
2017-11-27T23:53:27.606Z,54.60
2017-11-27T23:55:55.041Z,54.60
2017-11-27T23:58:22.465Z,55.30
